Time;durP1;ratioP1;P1;durP2;ratioP2;P2;SDS_P1;SDS_P2;PMS_P1;PMS_P2;Temp;Humidity;BMP_temperature;BMP_pressure;BME280_temperature;BME280_humidity;BME280_pressure;Samples;Min_cycle;Max_cycle;Signal;HPM_P1;HPM_P2
2021/03/13 00:02:01;;;;;;;4.43;2.00;;;;;;;;;;5035097;28;20498;-53
2021/03/13 00:04:27;;;;;;;5.57;2.27;;;;;;;;;;5035393;28;20395;-53
2021/03/13 00:06:53;;;;;;;2.97;2.00;;;;;;;;;;5035119;28;20466;-52
2021/03/13 00:09:19;;;;;;;2.30;2.10;;;;;;;;;;5035094;28;20427;-53
2021/03/13 00:11:45;;;;;;;3.43;2.53;;;;;;;;;;5034697;28;20408;-59
2021/03/13 00:14:11;;;;;;;3.03;2.10;;;;;;;;;;5031669;28;20837;-53
2021/03/13 00:16:37;;;;;;;6.03;2.60;;;;;;;;;;5034988;28;20404;-53
2021/03/13 00:19:03;;;;;;;8.27;2.90;;;;;;;;;;5034533;28;20920;-53
2021/03/13 00:21:29;;;;;;;7.97;2.47;;;;;;;;;;5033888;28;20493;-54
2021/03/13 00:23:55;;;;;;;5.20;2.50;;;;;;;;;;5034580;28;20404;-54
2021/03/13 00:26:21;;;;;;;9.53;2.23;;;;;;;;;;5034394;28;20526;-55
2021/03/13 00:28:47;;;;;;;5.43;2.53;;;;;;;;;;5033999;28;20951;-55
2021/03/13 00:31:13;;;;;;;7.03;2.57;;;;;;;;;;5034416;28;20401;-58
2021/03/13 00:33:42;;;;;;;3.83;2.10;;;;;;;;;;5034311;28;20423;-55
2021/03/13 00:36:08;;;;;;;8.97;3.00;;;;;;;;;;5034682;28;20482;-54
2021/03/13 00:38:36;;;;;;;9.45;2.75;;;;;;;;;;5034030;28;20461;-54
2021/03/13 00:41:02;;;;;;;9.40;3.15;;;;;;;;;;5034054;28;20170;-53
2021/03/13 00:43:28;;;;;;;12.80;3.13;;;;;;;;;;5034598;28;20540;-54
2021/03/13 00:45:54;;;;;;;9.10;2.60;;;;;;;;;;5031117;28;20197;-53
2021/03/13 00:48:20;;;;;;;7.63;2.70;;;;;;;;;;5034268;28;20426;-53
2021/03/13 00:50:46;;;;;;;5.80;2.22;;;;;;;;;;5034524;28;20450;-54
2021/03/13 00:53:13;;;;;;;6.73;2.50;;;;;;;;;;5034244;28;20176;-53
2021/03/13 00:55:39;;;;;;;8.57;2.47;;;;;;;;;;5034176;28;20409;-54
2021/03/13 00:58:05;;;;;;;7.07;2.00;;;;;;;;;;5033905;28;20426;-53
2021/03/13 01:00:31;;;;;;;14.53;3.20;;;;;;;;;;5034199;28;20243;-52
2021/03/13 01:02:57;;;;;;;9.40;2.83;;;;;;;;;;5034197;28;20774;-53
2021/03/13 01:05:23;;;;;;;9.73;2.43;;;;;;;;;;5033834;28;20543;-53
2021/03/13 01:07:49;;;;;;;10.57;2.83;;;;;;;;;;5033441;28;20453;-52
2021/03/13 01:10:35;;;;;;;11.80;3.17;;;;;;;;;;5033485;28;20455;-54
2021/03/13 01:13:02;;;;;;;7.80;2.70;;;;;;;;;;5033096;28;20430;-51
2021/03/13 01:15:28;;;;;;;6.73;2.80;;;;;;;;;;5029916;28;20179;-54
2021/03/13 01:17:54;;;;;;;9.17;2.87;;;;;;;;;;5033953;28;20481;-54
2021/03/13 01:20:20;;;;;;;11.83;3.20;;;;;;;;;;5033651;28;20435;-53
2021/03/13 01:22:48;;;;;;;5.77;2.83;;;;;;;;;;5033809;28;20844;-54
2021/03/13 01:25:14;;;;;;;5.10;2.87;;;;;;;;;;5033271;28;20454;-53
2021/03/13 01:27:40;;;;;;;5.83;2.60;;;;;;;;;;5032907;28;20425;-53
2021/03/13 01:30:14;;;;;;;6.20;3.13;;;;;;;;;;5032932;28;20536;-54
2021/03/13 01:32:40;;;;;;;5.00;2.40;;;;;;;;;;5033271;28;20825;-53
2021/03/13 01:35:07;;;;;;;3.00;2.53;;;;;;;;;;5033516;28;20171;-53
2021/03/13 01:37:33;;;;;;;4.95;2.38;;;;;;;;;;5033095;28;20919;-54
2021/03/13 01:39:59;;;;;;;4.32;2.40;;;;;;;;;;5033360;28;20603;-53
2021/03/13 01:42:26;;;;;;;3.10;2.50;;;;;;;;;;5033909;28;20535;-53
2021/03/13 01:44:52;;;;;;;6.85;2.95;;;;;;;;;;5030624;28;20462;-56
2021/03/13 01:47:24;;;;;;;6.87;4.30;;;;;;;;;;5033567;28;20209;-54
2021/03/13 01:49:51;;;;;;;7.18;3.30;;;;;;;;;;5032663;28;20422;-52
2021/03/13 01:52:17;;;;;;;7.07;3.40;;;;;;;;;;5033067;28;20163;-54
2021/03/13 01:57:46;;;;;;;8.95;4.50;;;;;;;;;;5032432;28;20569;-54
2021/03/13 02:00:14;;;;;;;6.87;3.87;;;;;;;;;;5032828;28;20269;-54
2021/03/13 02:02:40;;;;;;;8.25;4.05;;;;;;;;;;5032125;28;20401;-54
2021/03/13 02:05:09;;;;;;;5.50;4.00;;;;;;;;;;5032651;28;20191;-54
2021/03/13 02:07:41;;;;;;;4.43;4.03;;;;;;;;;;5032970;28;20901;-54
2021/03/13 02:10:12;;;;;;;9.70;4.53;;;;;;;;;;5032731;28;20207;-54
2021/03/13 02:12:52;;;;;;;12.43;5.07;;;;;;;;;;5033127;28;20249;-54
2021/03/13 02:15:18;;;;;;;9.45;4.20;;;;;;;;;;5031445;28;20183;-54
2021/03/13 02:17:44;;;;;;;5.10;4.63;;;;;;;;;;5032791;28;20176;-53
2021/03/13 02:20:10;;;;;;;8.93;5.28;;;;;;;;;;5033087;28;20405;-54
2021/03/13 02:22:37;;;;;;;8.47;4.30;;;;;;;;;;5029881;28;20183;-53
2021/03/13 02:25:07;;;;;;;7.17;5.27;;;;;;;;;;5032550;28;21005;-56
2021/03/13 02:27:41;;;;;;;8.07;4.93;;;;;;;;;;5033002;28;20406;-55
2021/03/13 02:30:15;;;;;;;6.20;4.35;;;;;;;;;;5032873;28;20168;-55
2021/03/13 02:32:43;;;;;;;7.82;4.80;;;;;;;;;;5033050;28;20171;-54
2021/03/13 02:35:11;;;;;;;7.65;5.07;;;;;;;;;;5033544;28;20648;-52
2021/03/13 02:37:42;;;;;;;5.70;5.25;;;;;;;;;;5036370;28;20627;-55
2021/03/13 02:40:09;;;;;;;11.45;5.75;;;;;;;;;;5036268;28;20171;-55
2021/03/13 02:42:45;;;;;;;9.75;6.07;;;;;;;;;;5036380;28;20172;-57
2021/03/13 02:45:12;;;;;;;12.18;6.63;;;;;;;;;;5033365;28;20207;-56
2021/03/13 02:47:40;;;;;;;5.32;4.82;;;;;;;;;;5035733;28;20167;-54
2021/03/13 02:50:06;;;;;;;10.90;4.78;;;;;;;;;;5035903;28;20256;-53
2021/03/13 02:52:33;;;;;;;5.70;5.25;;;;;;;;;;5036127;28;20218;-55
2021/03/13 02:55:00;;;;;;;6.25;5.30;;;;;;;;;;5036125;28;20226;-55
2021/03/13 02:57:27;;;;;;;7.40;4.32;;;;;;;;;;5035947;28;20174;-55
2021/03/13 02:59:53;;;;;;;5.00;4.60;;;;;;;;;;5036025;28;20222;-54
2021/03/13 03:02:19;;;;;;;6.13;5.13;;;;;;;;;;5035769;28;20179;-57
2021/03/13 03:04:47;;;;;;;12.57;7.05;;;;;;;;;;5035845;28;20180;-57
2021/03/13 03:07:13;;;;;;;7.10;4.88;;;;;;;;;;5035920;28;20224;-55
2021/03/13 03:09:40;;;;;;;10.77;5.53;;;;;;;;;;5036011;28;20606;-65
2021/03/13 03:12:06;;;;;;;9.95;6.18;;;;;;;;;;5035736;28;20172;-55
2021/03/13 03:14:32;;;;;;;12.85;6.32;;;;;;;;;;5032222;28;20167;-54
2021/03/13 03:16:59;;;;;;;8.70;6.93;;;;;;;;;;5035706;28;20616;-55
2021/03/13 03:19:26;;;;;;;9.05;5.80;;;;;;;;;;5035503;28;20426;-56
2021/03/13 03:21:53;;;;;;;9.18;6.28;;;;;;;;;;5036170;28;20167;-55
2021/03/13 03:24:19;;;;;;;7.05;6.35;;;;;;;;;;5035861;28;20174;-55
2021/03/13 03:26:45;;;;;;;8.20;5.97;;;;;;;;;;5035674;28;20203;-55
2021/03/13 03:29:11;;;;;;;7.05;6.20;;;;;;;;;;5034996;28;20539;-56
2021/03/13 03:31:38;;;;;;;7.82;7.18;;;;;;;;;;5035499;28;20209;-55
2021/03/13 03:34:04;;;;;;;11.23;6.65;;;;;;;;;;5035589;28;20163;-55
2021/03/13 03:36:30;;;;;;;7.10;5.93;;;;;;;;;;5035983;28;20217;-53
2021/03/13 03:38:56;;;;;;;8.87;6.97;;;;;;;;;;5036347;28;20191;-51
2021/03/13 03:41:23;;;;;;;7.55;6.07;;;;;;;;;;5036689;28;20453;-52
2021/03/13 03:44:09;;;;;;;6.22;5.70;;;;;;;;;;5033531;28;20175;-56
2021/03/13 03:46:36;;;;;;;6.93;5.85;;;;;;;;;;5035912;28;20303;-56
2021/03/13 03:49:05;;;;;;;6.80;6.20;;;;;;;;;;5036666;28;20241;-51
2021/03/13 03:51:31;;;;;;;6.95;5.78;;;;;;;;;;5036555;28;20188;-49
2021/03/13 03:53:58;;;;;;;5.05;4.65;;;;;;;;;;5036057;28;20701;-50
2021/03/13 03:56:25;;;;;;;5.63;5.18;;;;;;;;;;5036383;28;20163;-52
2021/03/13 03:58:52;;;;;;;5.47;5.07;;;;;;;;;;5034399;28;20538;-54
2021/03/13 04:01:20;;;;;;;5.45;4.40;;;;;;;;;;5034827;28;20635;-54
2021/03/13 04:03:51;;;;;;;5.20;4.80;;;;;;;;;;5036535;28;20176;-53
2021/03/13 04:06:18;;;;;;;5.68;5.10;;;;;;;;;;5036145;28;20198;-55
2021/03/13 04:08:46;;;;;;;5.10;4.70;;;;;;;;;;5036177;28;20180;-53
2021/03/13 04:11:13;;;;;;;4.05;3.75;;;;;;;;;;5034356;28;20188;-54
2021/03/13 04:13:39;;;;;;;4.82;4.43;;;;;;;;;;5035276;28;20179;-52
2021/03/13 04:16:05;;;;;;;4.35;3.78;;;;;;;;;;5035920;28;20185;-51
2021/03/13 04:18:32;;;;;;;3.85;3.35;;;;;;;;;;5035995;28;20213;-51
2021/03/13 04:20:58;;;;;;;3.83;3.53;;;;;;;;;;5036516;28;20175;-55
2021/03/13 04:23:24;;;;;;;4.30;3.30;;;;;;;;;;5035909;28;20202;-53
2021/03/13 04:25:51;;;;;;;2.80;2.70;;;;;;;;;;5035818;28;20202;-52
2021/03/13 04:28:18;;;;;;;2.80;2.60;;;;;;;;;;5035125;28;20206;-54
2021/03/13 04:30:44;;;;;;;5.18;2.38;;;;;;;;;;5035970;28;20186;-53
2021/03/13 04:33:10;;;;;;;2.50;2.30;;;;;;;;;;5035637;28;20698;-54
2021/03/13 04:35:36;;;;;;;3.30;2.30;;;;;;;;;;5035469;28;20408;-53
2021/03/13 04:38:03;;;;;;;4.57;2.95;;;;;;;;;;5035350;28;20242;-51
2021/03/13 04:40:29;;;;;;;3.67;2.03;;;;;;;;;;5035371;28;20167;-52
2021/03/13 04:42:55;;;;;;;3.15;2.28;;;;;;;;;;5032222;28;20663;-51
2021/03/13 04:45:21;;;;;;;4.27;2.90;;;;;;;;;;5035731;28;20237;-51
2021/03/13 04:47:48;;;;;;;3.88;2.60;;;;;;;;;;5035811;28;21054;-52
2021/03/13 04:50:15;;;;;;;2.72;2.30;;;;;;;;;;5035147;28;20667;-54
2021/03/13 04:52:41;;;;;;;2.72;2.53;;;;;;;;;;5036138;28;20717;-51
2021/03/13 04:55:07;;;;;;;2.38;2.17;;;;;;;;;;5035878;28;20198;-52
2021/03/13 04:57:33;;;;;;;5.18;2.28;;;;;;;;;;5035650;28;20175;-52
2021/03/13 04:59:59;;;;;;;2.47;2.27;;;;;;;;;;5034468;28;20175;-52
2021/03/13 05:02:25;;;;;;;2.78;2.67;;;;;;;;;;5035413;28;20785;-51
2021/03/13 05:04:51;;;;;;;2.80;2.13;;;;;;;;;;5035533;28;20175;-52
2021/03/13 05:07:17;;;;;;;2.37;2.27;;;;;;;;;;5034721;28;20408;-59
2021/03/13 05:09:43;;;;;;;3.57;2.10;;;;;;;;;;5034678;28;20428;-55
2021/03/13 05:12:09;;;;;;;2.60;2.40;;;;;;;;;;5031578;28;20430;-55
2021/03/13 05:14:35;;;;;;;2.58;2.10;;;;;;;;;;5035182;28;20403;-55
2021/03/13 05:17:02;;;;;;;2.30;2.20;;;;;;;;;;5035350;28;20225;-56
2021/03/13 05:19:28;;;;;;;2.60;2.40;;;;;;;;;;5034941;28;20459;-58
2021/03/13 05:21:54;;;;;;;2.50;2.30;;;;;;;;;;5035209;28;20640;-54
2021/03/13 05:24:20;;;;;;;2.15;2.05;;;;;;;;;;5034718;28;20410;-51
2021/03/13 05:26:46;;;;;;;2.90;2.27;;;;;;;;;;5034802;28;20233;-52
2021/03/13 05:29:12;;;;;;;2.57;2.17;;;;;;;;;;5035045;28;20423;-56
2021/03/13 05:31:38;;;;;;;4.22;2.63;;;;;;;;;;5034780;28;20406;-55
2021/03/13 05:34:04;;;;;;;2.27;2.17;;;;;;;;;;5034469;28;20218;-53
2021/03/13 05:36:30;;;;;;;1.95;1.85;;;;;;;;;;5034651;28;20962;-54
2021/03/13 05:38:56;;;;;;;2.80;2.00;;;;;;;;;;5034143;28;20230;-56
2021/03/13 05:41:22;;;;;;;6.50;2.03;;;;;;;;;;5030556;28;20430;-51
2021/03/13 05:43:48;;;;;;;2.77;1.63;;;;;;;;;;5034491;28;20418;-52
2021/03/13 05:46:16;;;;;;;1.90;1.80;;;;;;;;;;5035219;28;20460;-51
2021/03/13 05:48:43;;;;;;;5.53;1.50;;;;;;;;;;5034237;28;20191;-51
2021/03/13 05:51:12;;;;;;;2.00;1.90;;;;;;;;;;5034504;28;20198;-51
2021/03/13 05:53:39;;;;;;;1.80;1.70;;;;;;;;;;5034462;28;20213;-51
2021/03/13 05:56:06;;;;;;;2.72;1.85;;;;;;;;;;5034069;28;20184;-53
2021/03/13 05:58:32;;;;;;;1.20;1.20;;;;;;;;;;5034374;28;20271;-51
2021/03/13 06:00:58;;;;;;;1.60;1.50;;;;;;;;;;5034137;28;20191;-51
2021/03/13 06:03:24;;;;;;;2.00;1.83;;;;;;;;;;5034419;28;20944;-52
2021/03/13 06:05:50;;;;;;;1.63;1.53;;;;;;;;;;5034265;28;20199;-51
2021/03/13 06:08:17;;;;;;;1.70;1.60;;;;;;;;;;5034571;28;20418;-53
2021/03/13 06:10:43;;;;;;;1.75;1.65;;;;;;;;;;5031811;28;20270;-51
2021/03/13 06:13:10;;;;;;;1.65;1.55;;;;;;;;;;5038486;28;20163;-51
2021/03/13 06:15:36;;;;;;;5.22;1.33;;;;;;;;;;5038731;28;20241;-53
2021/03/13 06:18:03;;;;;;;1.40;1.30;;;;;;;;;;5038135;28;20198;-53
2021/03/13 06:20:36;;;;;;;2.65;1.85;;;;;;;;;;5037032;28;20186;-52
2021/03/13 06:23:03;;;;;;;2.58;1.73;;;;;;;;;;5038579;28;20175;-53
2021/03/13 06:25:30;;;;;;;1.90;1.80;;;;;;;;;;5038141;28;20266;-51
2021/03/13 06:28:02;;;;;;;3.95;2.10;;;;;;;;;;5038287;28;20186;-54
2021/03/13 06:30:32;;;;;;;2.00;1.80;;;;;;;;;;5037260;28;20639;-52
2021/03/13 06:32:58;;;;;;;2.03;1.90;;;;;;;;;;5038282;28;20426;-54
2021/03/13 06:35:26;;;;;;;2.03;1.92;;;;;;;;;;5037862;28;20411;-51
2021/03/13 06:37:53;;;;;;;2.10;2.00;;;;;;;;;;5037762;28;20199;-50
2021/03/13 06:40:26;;;;;;;3.83;2.10;;;;;;;;;;5034911;28;20187;-55
2021/03/13 06:42:53;;;;;;;2.67;2.20;;;;;;;;;;5038025;28;20176;-51
2021/03/13 06:45:19;;;;;;;2.75;1.98;;;;;;;;;;5038447;28;20703;-54
2021/03/13 06:47:45;;;;;;;3.00;1.90;;;;;;;;;;5037421;28;20168;-54
2021/03/13 06:50:16;;;;;;;1.83;1.73;;;;;;;;;;5038365;28;20172;-52
2021/03/13 06:52:47;;;;;;;2.95;2.10;;;;;;;;;;5037818;28;20235;-51
2021/03/13 06:55:17;;;;;;;2.50;2.30;;;;;;;;;;5037158;28;20174;-50
2021/03/13 06:57:44;;;;;;;2.50;2.30;;;;;;;;;;5035376;28;20168;-50
2021/03/13 07:00:10;;;;;;;2.22;1.65;;;;;;;;;;5036848;28;20211;-55
2021/03/13 07:02:36;;;;;;;5.78;3.40;;;;;;;;;;5036686;28;20227;-54
2021/03/13 07:05:09;;;;;;;2.20;2.00;;;;;;;;;;5037319;28;20202;-53
2021/03/13 07:07:35;;;;;;;3.88;2.15;;;;;;;;;;5037220;28;20169;-51
2021/03/13 07:10:04;;;;;;;2.15;1.83;;;;;;;;;;5033912;28;20172;-53
2021/03/13 07:12:30;;;;;;;3.25;2.00;;;;;;;;;;5037288;28;20321;-52
2021/03/13 07:14:57;;;;;;;1.85;1.75;;;;;;;;;;5037477;28;20173;-54
2021/03/13 07:17:24;;;;;;;3.50;2.17;;;;;;;;;;5036870;28;20161;-50
2021/03/13 07:19:50;;;;;;;2.95;1.85;;;;;;;;;;5037360;28;20213;-50
2021/03/13 07:22:16;;;;;;;4.57;2.30;;;;;;;;;;5036534;28;20644;-53
2021/03/13 07:24:46;;;;;;;5.28;2.20;;;;;;;;;;5037324;28;20238;-54
2021/03/13 07:27:12;;;;;;;2.13;1.50;;;;;;;;;;5037024;28;20195;-50
2021/03/13 07:29:40;;;;;;;2.63;1.70;;;;;;;;;;5036421;28;20188;-54
2021/03/13 07:32:08;;;;;;;1.95;1.50;;;;;;;;;;5037187;28;20770;-51
2021/03/13 07:34:37;;;;;;;2.20;1.80;;;;;;;;;;5037109;28;20168;-51
2021/03/13 07:37:03;;;;;;;1.40;1.30;;;;;;;;;;5036840;28;20458;-54
2021/03/13 07:39:33;;;;;;;6.30;1.80;;;;;;;;;;5034782;28;20191;-52
2021/03/13 07:42:19;;;;;;;3.03;1.30;;;;;;;;;;5034338;28;20494;-53
2021/03/13 07:44:46;;;;;;;2.20;1.83;;;;;;;;;;5037044;28;20402;-51
2021/03/13 07:47:13;;;;;;;1.73;1.63;;;;;;;;;;5037335;28;20193;-56
2021/03/13 07:49:39;;;;;;;1.75;1.30;;;;;;;;;;5036563;28;20423;-51
2021/03/13 07:52:06;;;;;;;1.57;1.47;;;;;;;;;;5036646;28;20184;-51
2021/03/13 07:54:36;;;;;;;4.55;1.50;;;;;;;;;;5036815;28;20398;-52
2021/03/13 07:57:03;;;;;;;1.50;1.40;;;;;;;;;;5036547;28;20167;-51
2021/03/13 07:59:49;;;;;;;2.08;1.60;;;;;;;;;;5036148;28;20192;-52
2021/03/13 08:02:31;;;;;;;1.60;1.40;;;;;;;;;;5036356;28;20194;-54
2021/03/13 08:05:09;;;;;;;1.92;1.15;;;;;;;;;;5035032;28;20205;-53
2021/03/13 08:07:51;;;;;;;1.20;1.10;;;;;;;;;;5035423;28;20163;-52
2021/03/13 08:10:36;;;;;;;2.15;1.30;;;;;;;;;;5031714;28;20176;-52
2021/03/13 08:13:02;;;;;;;1.10;1.00;;;;;;;;;;5035391;28;20171;-51
2021/03/13 08:15:43;;;;;;;1.20;1.10;;;;;;;;;;5035526;28;20167;-51
2021/03/13 08:18:12;;;;;;;1.17;1.10;;;;;;;;;;5034921;28;20437;-52
2021/03/13 08:20:39;;;;;;;1.95;1.20;;;;;;;;;;5035852;28;20180;-51
2021/03/13 08:23:13;;;;;;;1.02;1.02;;;;;;;;;;5035831;28;20176;-52
2021/03/13 08:25:53;;;;;;;1.42;1.13;;;;;;;;;;5035746;28;20201;-57
2021/03/13 08:28:38;;;;;;;1.23;1.08;;;;;;;;;;5024972;28;20264;-55
2021/03/13 08:31:22;;;;;;;1.40;1.17;;;;;;;;;;5007121;28;20180;-55
2021/03/13 08:33:52;;;;;;;1.30;1.20;;;;;;;;;;5016775;28;20199;-55
2021/03/13 08:36:45;;;;;;;2.00;1.13;;;;;;;;;;5020886;28;20203;-56
2021/03/13 08:39:34;;;;;;;4.20;1.33;;;;;;;;;;5019803;28;20255;-55
2021/03/13 08:42:10;;;;;;;2.13;1.95;;;;;;;;;;5021850;28;20176;-54
2021/03/13 08:44:58;;;;;;;1.98;1.10;;;;;;;;;;5018484;28;20183;-55
2021/03/13 08:47:42;;;;;;;3.55;1.58;;;;;;;;;;5011524;28;20172;-54
2021/03/13 08:50:08;;;;;;;1.40;1.30;;;;;;;;;;5018957;28;20180;-56
2021/03/13 08:52:38;;;;;;;4.50;1.40;;;;;;;;;;5020220;28;20187;-54
2021/03/13 08:55:07;;;;;;;1.67;1.33;;;;;;;;;;5019363;28;20168;-50
2021/03/13 08:57:33;;;;;;;2.35;1.27;;;;;;;;;;5015265;28;20181;-55
2021/03/13 09:00:00;;;;;;;1.77;1.30;;;;;;;;;;5020277;28;20257;-54
2021/03/13 09:02:32;;;;;;;1.83;1.20;;;;;;;;;;5018686;28;20234;-55
2021/03/13 09:05:06;;;;;;;5.68;1.38;;;;;;;;;;5020242;28;20407;-55
2021/03/13 09:07:32;;;;;;;3.13;1.50;;;;;;;;;;5019307;28;20199;-54
2021/03/13 09:09:58;;;;;;;2.05;1.48;;;;;;;;;;5028253;28;20418;-54
2021/03/13 09:12:25;;;;;;;1.65;1.02;;;;;;;;;;5040335;28;20270;-54
2021/03/13 09:14:54;;;;;;;2.63;1.30;;;;;;;;;;5039940;28;20233;-52
2021/03/13 09:17:21;;;;;;;2.50;1.20;;;;;;;;;;5040073;28;20402;-51
2021/03/13 09:19:48;;;;;;;2.70;1.60;;;;;;;;;;5040491;28;20427;-55
2021/03/13 09:22:15;;;;;;;4.53;1.57;;;;;;;;;;5039584;28;20407;-55
2021/03/13 09:24:42;;;;;;;2.23;1.23;;;;;;;;;;5038528;28;20451;-55
2021/03/13 09:27:46;;;;;;;2.40;1.57;;;;;;;;;;5039373;28;20502;-55
2021/03/13 09:30:11;;;;;;;1.90;1.42;;;;;;;;;;5039177;28;20781;-54
2021/03/13 09:32:41;;;;;;;2.33;1.30;;;;;;;;;;5039226;28;20168;-54
2021/03/13 09:35:07;;;;;;;7.20;1.63;;;;;;;;;;5038513;28;20211;-54
2021/03/13 09:37:34;;;;;;;4.77;1.40;;;;;;;;;;5037083;28;20408;-51
2021/03/13 09:40:03;;;;;;;2.23;1.30;;;;;;;;;;5030292;28;20449;-51
2021/03/13 09:42:29;;;;;;;1.80;1.30;;;;;;;;;;5034209;28;20411;-53
2021/03/13 09:44:56;;;;;;;1.47;1.37;;;;;;;;;;5034114;28;20404;-51
2021/03/13 09:47:22;;;;;;;2.13;1.10;;;;;;;;;;5034531;28;20398;-52
2021/03/13 09:49:51;;;;;;;4.70;2.00;;;;;;;;;;5034292;28;20419;-50
2021/03/13 09:52:23;;;;;;;3.60;1.47;;;;;;;;;;5034326;28;20439;-59
2021/03/13 09:54:49;;;;;;;1.53;1.23;;;;;;;;;;5035050;28;20414;-51
2021/03/13 09:57:15;;;;;;;2.40;1.40;;;;;;;;;;5034400;28;20962;-55
2021/03/13 09:59:42;;;;;;;4.60;1.90;;;;;;;;;;5023843;28;20434;-51
2021/03/13 10:02:09;;;;;;;6.10;2.07;;;;;;;;;;5015312;28;20506;-53
2021/03/13 10:04:35;;;;;;;6.50;1.90;;;;;;;;;;5014422;28;20414;-49
2021/03/13 10:07:01;;;;;;;6.97;1.95;;;;;;;;;;5018439;28;20474;-50
2021/03/13 10:09:27;;;;;;;7.20;1.80;;;;;;;;;;5012284;28;20221;-49
2021/03/13 10:11:58;;;;;;;8.80;2.58;;;;;;;;;;5012373;28;20411;-49
2021/03/13 10:14:24;;;;;;;4.60;2.40;;;;;;;;;;5014185;28;20185;-53
2021/03/13 10:17:08;;;;;;;5.05;1.83;;;;;;;;;;5025836;28;20436;-53
2021/03/13 10:19:34;;;;;;;4.40;1.73;;;;;;;;;;5014214;28;20200;-52
2021/03/13 10:22:07;;;;;;;2.23;1.40;;;;;;;;;;5014864;28;20487;-51
2021/03/13 10:24:43;;;;;;;5.33;2.13;;;;;;;;;;5015114;28;20419;-60
2021/03/13 10:27:10;;;;;;;5.53;2.00;;;;;;;;;;5015047;28;20487;-48
2021/03/13 10:29:36;;;;;;;5.37;1.70;;;;;;;;;;5014340;28;20417;-58
2021/03/13 10:32:02;;;;;;;6.93;2.23;;;;;;;;;;5014224;28;20496;-50
2021/03/13 10:34:37;;;;;;;7.63;2.43;;;;;;;;;;5012368;28;20410;-49
2021/03/13 10:37:03;;;;;;;4.87;1.80;;;;;;;;;;5020998;28;20432;-50
2021/03/13 10:39:29;;;;;;;3.40;2.03;;;;;;;;;;5033189;28;20422;-51
2021/03/13 10:42:00;;;;;;;6.27;1.80;;;;;;;;;;5032778;28;20485;-51
2021/03/13 10:44:27;;;;;;;5.57;1.70;;;;;;;;;;5033096;28;20496;-49
2021/03/13 10:46:53;;;;;;;9.10;2.30;;;;;;;;;;5033160;28;20464;-49
2021/03/13 10:49:28;;;;;;;2.57;1.80;;;;;;;;;;5033351;28;20417;-50
2021/03/13 10:51:54;;;;;;;7.53;2.67;;;;;;;;;;5033499;28;20455;-51
2021/03/13 10:54:25;;;;;;;4.53;2.30;;;;;;;;;;5032734;28;20906;-50
2021/03/13 10:56:51;;;;;;;10.73;2.47;;;;;;;;;;5035345;28;20463;-50
2021/03/13 10:59:19;;;;;;;4.60;1.70;;;;;;;;;;5037811;28;20414;-53
2021/03/13 11:01:46;;;;;;;5.43;2.17;;;;;;;;;;5033638;28;20438;-57
2021/03/13 11:04:12;;;;;;;8.13;2.10;;;;;;;;;;5037292;28;20412;-55
2021/03/13 11:06:39;;;;;;;9.70;3.33;;;;;;;;;;5032737;28;20560;-53
2021/03/13 11:09:09;;;;;;;7.27;1.97;;;;;;;;;;5035842;28;20425;-54
2021/03/13 11:11:35;;;;;;;17.60;2.80;;;;;;;;;;5033551;28;20417;-53
2021/03/13 11:14:02;;;;;;;4.00;1.87;;;;;;;;;;5033446;28;20852;-53
2021/03/13 11:16:28;;;;;;;9.93;2.70;;;;;;;;;;5033183;28;20495;-53
2021/03/13 11:18:54;;;;;;;4.90;1.90;;;;;;;;;;5033111;28;20458;-54
2021/03/13 11:21:21;;;;;;;7.77;2.27;;;;;;;;;;5033505;28;20414;-53
2021/03/13 11:23:49;;;;;;;11.07;2.90;;;;;;;;;;5033858;28;20399;-53
2021/03/13 11:26:15;;;;;;;8.87;1.80;;;;;;;;;;5035908;28;20506;-55
2021/03/13 11:28:41;;;;;;;11.37;2.00;;;;;;;;;;5035925;28;20421;-52
2021/03/13 11:31:07;;;;;;;5.33;2.23;;;;;;;;;;5036842;28;21068;-53
2021/03/13 11:33:33;;;;;;;12.53;2.43;;;;;;;;;;5036811;28;20961;-54
2021/03/13 11:35:59;;;;;;;8.27;3.20;;;;;;;;;;5032742;28;20424;-53
2021/03/13 11:38:25;;;;;;;6.97;2.67;;;;;;;;;;5035076;28;20425;-53
2021/03/13 11:40:51;;;;;;;6.50;2.60;;;;;;;;;;5033641;28;20413;-53
2021/03/13 11:43:17;;;;;;;9.13;2.70;;;;;;;;;;5032809;28;20402;-51
2021/03/13 11:45:43;;;;;;;6.67;2.30;;;;;;;;;;5033361;28;20473;-51
2021/03/13 11:48:09;;;;;;;9.53;3.40;;;;;;;;;;5032663;28;20426;-51
2021/03/13 11:50:36;;;;;;;15.27;3.07;;;;;;;;;;5012777;28;20418;-51
2021/03/13 11:53:02;;;;;;;11.57;2.37;;;;;;;;;;5012841;28;21139;-53
2021/03/13 11:55:28;;;;;;;12.67;2.60;;;;;;;;;;5012805;28;20486;-51
2021/03/13 11:57:54;;;;;;;9.67;3.00;;;;;;;;;;5012145;28;20459;-51
2021/03/13 12:00:21;;;;;;;7.23;2.67;;;;;;;;;;5012716;28;20441;-53
2021/03/13 12:02:47;;;;;;;6.10;2.30;;;;;;;;;;5013435;28;20486;-54
2021/03/13 12:05:13;;;;;;;9.13;2.53;;;;;;;;;;5011512;28;20460;-52
2021/03/13 12:07:40;;;;;;;7.83;2.60;;;;;;;;;;5032188;28;20394;-53
2021/03/13 12:10:07;;;;;;;7.80;2.20;;;;;;;;;;5033516;28;20485;-52
2021/03/13 12:12:33;;;;;;;9.70;2.67;;;;;;;;;;5009672;28;20422;-53
2021/03/13 12:14:59;;;;;;;5.33;2.00;;;;;;;;;;5013243;28;20868;-52
2021/03/13 12:17:25;;;;;;;6.57;2.10;;;;;;;;;;5012478;28;20407;-53
2021/03/13 12:19:51;;;;;;;6.40;1.83;;;;;;;;;;5012375;28;20427;-52
2021/03/13 12:22:17;;;;;;;7.23;1.60;;;;;;;;;;5012823;28;20893;-53
2021/03/13 12:24:43;;;;;;;2.93;1.67;;;;;;;;;;5012317;28;20489;-53
2021/03/13 12:27:10;;;;;;;2.80;1.60;;;;;;;;;;5012032;28;20454;-52
2021/03/13 12:29:36;;;;;;;7.33;2.47;;;;;;;;;;5012575;28;20424;-51
2021/03/13 12:32:03;;;;;;;4.27;1.83;;;;;;;;;;5012224;28;20760;-51
2021/03/13 12:34:29;;;;;;;5.60;1.97;;;;;;;;;;5012259;28;20457;-51
2021/03/13 12:36:55;;;;;;;8.63;2.40;;;;;;;;;;5026500;28;20438;-52
2021/03/13 12:39:21;;;;;;;9.23;3.13;;;;;;;;;;5031484;28;20464;-50
2021/03/13 12:41:47;;;;;;;7.00;2.30;;;;;;;;;;5031788;28;20459;-53
2021/03/13 12:44:14;;;;;;;5.03;3.03;;;;;;;;;;5033460;28;20432;-53
2021/03/13 12:46:40;;;;;;;18.10;3.37;;;;;;;;;;5033263;28;20489;-53
2021/03/13 12:49:06;;;;;;;7.87;2.30;;;;;;;;;;5034973;28;20416;-52
2021/03/13 12:51:32;;;;;;;10.00;3.17;;;;;;;;;;5035527;28;20552;-52
2021/03/13 12:54:04;;;;;;;12.77;2.97;;;;;;;;;;5035227;28;20442;-53
2021/03/13 12:56:30;;;;;;;8.37;1.77;;;;;;;;;;5034470;28;20418;-52
2021/03/13 12:58:56;;;;;;;2.93;1.70;;;;;;;;;;5035318;28;20969;-52
2021/03/13 13:01:22;;;;;;;3.73;1.70;;;;;;;;;;5035619;28;20435;-53
2021/03/13 13:03:58;;;;;;;7.95;1.90;;;;;;;;;;5035711;28;20780;-51
2021/03/13 13:06:24;;;;;;;10.60;1.43;;;;;;;;;;5031989;28;20251;-51
2021/03/13 13:08:50;;;;;;;3.43;1.20;;;;;;;;;;5035441;28;20425;-52
2021/03/13 13:11:16;;;;;;;5.37;1.67;;;;;;;;;;5035148;28;20413;-52
2021/03/13 13:13:42;;;;;;;6.53;2.00;;;;;;;;;;5035520;28;20829;-53
2021/03/13 13:16:08;;;;;;;5.13;1.90;;;;;;;;;;5034722;28;20412;-53
2021/03/13 13:18:34;;;;;;;6.47;2.10;;;;;;;;;;5033583;28;20560;-52
2021/03/13 13:21:01;;;;;;;6.37;2.10;;;;;;;;;;5033968;28;20406;-53
2021/03/13 13:23:27;;;;;;;4.20;2.90;;;;;;;;;;5033720;28;20403;-52
2021/03/13 13:25:56;;;;;;;4.37;2.33;;;;;;;;;;5033812;28;20468;-54
2021/03/13 13:28:23;;;;;;;5.53;2.40;;;;;;;;;;5008812;28;20448;-56
2021/03/13 13:30:49;;;;;;;8.67;2.60;;;;;;;;;;5014296;28;20410;-52
2021/03/13 13:33:15;;;;;;;11.03;2.07;;;;;;;;;;5014350;28;20405;-52
2021/03/13 13:35:41;;;;;;;7.97;1.70;;;;;;;;;;5020541;28;20430;-53
2021/03/13 13:38:14;;;;;;;7.70;2.30;;;;;;;;;;5039548;28;20432;-55
2021/03/13 13:40:40;;;;;;;8.43;2.80;;;;;;;;;;5041551;28;20422;-56
2021/03/13 13:43:12;;;;;;;13.47;2.53;;;;;;;;;;5042577;28;20494;-54
2021/03/13 13:45:38;;;;;;;5.60;3.00;;;;;;;;;;5042181;28;20464;-55
2021/03/13 13:48:05;;;;;;;7.33;2.10;;;;;;;;;;5042210;28;20427;-54
2021/03/13 13:50:37;;;;;;;11.23;2.57;;;;;;;;;;5041828;28;20402;-52
2021/03/13 13:53:04;;;;;;;8.43;3.03;;;;;;;;;;5040521;28;20941;-53
2021/03/13 13:55:30;;;;;;;9.48;2.92;;;;;;;;;;5041610;28;20551;-53
2021/03/13 13:57:56;;;;;;;7.15;2.53;;;;;;;;;;5041832;28;20187;-53
2021/03/13 14:00:23;;;;;;;10.38;2.83;;;;;;;;;;5042393;28;20175;-54
2021/03/13 14:02:50;;;;;;;5.85;2.65;;;;;;;;;;5042551;28;20406;-54
2021/03/13 14:05:16;;;;;;;6.90;2.85;;;;;;;;;;5038675;28;20590;-55
2021/03/13 14:07:42;;;;;;;8.60;2.10;;;;;;;;;;5039360;28;20271;-53
2021/03/13 14:10:09;;;;;;;3.30;1.80;;;;;;;;;;5040651;28;20436;-55
2021/03/13 14:12:35;;;;;;;3.47;1.70;;;;;;;;;;5039018;28;20458;-54
2021/03/13 14:15:01;;;;;;;9.97;2.47;;;;;;;;;;5039125;28;20432;-54
2021/03/13 14:17:27;;;;;;;4.70;2.10;;;;;;;;;;5037421;28;20411;-54
2021/03/13 14:19:53;;;;;;;3.70;2.30;;;;;;;;;;5038605;28;20450;-55
2021/03/13 14:22:19;;;;;;;5.53;2.60;;;;;;;;;;5037888;28;20402;-54
2021/03/13 14:24:45;;;;;;;7.90;2.27;;;;;;;;;;5037422;28;20438;-54
2021/03/13 14:27:11;;;;;;;8.57;2.20;;;;;;;;;;5036180;28;20832;-53
2021/03/13 14:29:37;;;;;;;3.23;2.10;;;;;;;;;;5032481;28;20431;-54
2021/03/13 14:32:04;;;;;;;9.17;1.97;;;;;;;;;;5034837;28;20398;-54
2021/03/13 14:34:31;;;;;;;5.77;1.90;;;;;;;;;;5036621;28;20419;-53
2021/03/13 14:36:57;;;;;;;6.33;2.10;;;;;;;;;;5032289;28;20516;-53
2021/03/13 14:39:24;;;;;;;4.93;2.00;;;;;;;;;;5036151;28;20436;-53
2021/03/13 14:41:50;;;;;;;11.68;2.25;;;;;;;;;;5036104;28;20413;-54
2021/03/13 14:44:17;;;;;;;9.83;3.60;;;;;;;;;;5036616;28;20182;-53
2021/03/13 14:46:54;;;;;;;10.13;2.77;;;;;;;;;;5039277;28;20526;-50
2021/03/13 14:49:20;;;;;;;6.93;2.40;;;;;;;;;;5043202;28;20497;-54